Time;durP1;ratioP1;P1;durP2;ratioP2;P2;SDS_P1;SDS_P2;PMS_P1;PMS_P2;Temp;Humidity;BMP_temperature;BMP_pressure;BME280_temperature;BME280_humidity;BME280_pressure;Samples;Min_cycle;Max_cycle;Signal;HPM_P1;HPM_P2
2021/05/07 16:53:34;;;;;;;;;;;;;;;;;;5079742;28;20310;-65
2021/05/07 16:56:00;;;;;;;;;;;;;;;;;;5078267;28;19955;-67
2021/05/07 16:58:25;;;;;;;;;;;;;;;;;;5075065;28;19966;-66
2021/05/07 17:06:43;;;;;;;;;;;;;;;;;;5064850;27;19970;-68
2021/05/07 17:09:09;;;;;;;;;;;;;;;;;;5084317;28;20072;-69
2021/05/07 17:11:34;;;;;;;;;;;;;;;;;;5084728;28;19973;-68
2021/05/07 17:14:00;;;;;;;;;;;;;;;;;;5086391;28;19920;-67
2021/05/07 17:16:25;;;;;;;;;;;;;;;;;;5089150;28;19913;-67
2021/05/07 17:18:51;;;;;;;;;;;;;;;;;;5087820;28;19920;-68
2021/05/07 17:21:16;;;;;;;;;;;;;;;;;;5084225;28;20327;-68
2021/05/07 17:23:42;;;;;;;;;;;;;;;;;;5089507;28;19913;-68
2021/05/07 17:26:07;;;;;;;;;;;;;;;;;;5086582;28;20239;-66
2021/05/07 17:28:32;;;;;;;;;;;;;;;;;;5089111;28;19919;-67
2021/05/07 17:30:58;;;;;;;;;;;;;;;;;;5085841;28;19974;-67
2021/05/07 17:33:23;;;;;;;;;;;;;;;;;;5086551;28;20302;-68
2021/05/07 17:35:48;;;;;;;;;;;;;;;;;;5085946;28;19924;-67
2021/05/07 17:38:14;;;;;;;;;;;;;;;;;;5086717;28;20545;-69
2021/05/07 17:40:39;;;;;;;;;;;;;;;;;;5086471;28;19955;-67
2021/05/07 17:43:08;;;;;;;;;;;;;;;;;;5089433;28;19924;-66
2021/05/07 17:45:33;;;;;;;;;;;;;;;;;;5091556;28;19916;-72
2021/05/07 17:47:58;;;;;;;;;;;;;;;;;;5092412;28;19920;-73
2021/05/07 17:50:24;;;;;;;;;;;;;;;;;;5089518;28;19916;-69
2021/05/07 17:52:49;;;;;;;;;;;;;;;;;;5087560;28;19912;-61
2021/05/07 17:55:14;;;;;;;;;;;;;;;;;;5087433;28;19923;-62
2021/05/07 17:57:40;;;;;;;;;;;;;;;;;;5089067;28;20013;-61
2021/05/07 18:00:06;;;;;;;;;;;;;;;;;;5087602;28;19912;-63
2021/05/07 18:02:31;;;;;;;;;;;;;;;;;;5087747;28;19965;-61
2021/05/07 18:04:56;;;;;;;;;;;;;;;;;;5084816;28;19927;-63
2021/05/07 18:07:22;;;;;;;;;;;;;;;;;;5084692;28;20023;-62
2021/05/07 18:09:47;;;;;;;;;;;;;;;;;;5088044;28;20729;-61
2021/05/07 18:12:17;;;;;;;;;;;;;;;;;;5086992;28;19956;-61
2021/05/07 18:14:42;;;;;;;;;;;;;;;;;;5085436;28;19920;-62
2021/05/07 18:17:08;;;;;;;;;;;;;;;;;;5078663;28;19966;-61
2021/05/07 18:19:33;;;;;;;;;;;;;;;;;;5071765;28;19912;-60
2021/05/07 18:21:58;;;;;;;;;;;;;;;;;;5069079;28;19920;-67
2021/05/07 18:24:24;;;;;;;;;;;;;;;;;;5072087;28;19921;-68
2021/05/07 18:26:49;;;;;;;;;;;;;;;;;;5071763;28;20403;-68
2021/05/07 18:29:15;;;;;;;;;;;;;;;;;;5071983;28;20019;-61
2021/05/07 18:31:40;;;;;;;;;;;;;;;;;;5078652;28;19973;-61
2021/05/07 18:34:05;;;;;;;;;;;;;;;;;;5083546;28;19915;-61
2021/05/07 18:36:31;;;;;;;;;;;;;;;;;;5080806;28;20465;-60
2021/05/07 18:38:56;;;;;;;;;;;;;;;;;;5081925;28;19999;-59
2021/05/07 18:41:21;;;;;;;;;;;;;;;;;;5080026;28;19920;-60
2021/05/07 18:43:47;;;;;;;;;;;;;;;;;;5081057;28;20000;-60
2021/05/07 18:46:12;;;;;;;;;;;;;;;;;;5081519;28;19917;-60
2021/05/07 18:48:38;;;;;;;;;;;;;;;;;;5079726;28;20028;-60
2021/05/07 18:51:03;;;;;;;;;;;;;;;;;;5072099;28;19951;-64
2021/05/07 18:53:30;;;;;;;;;;;;;;;;;;5070080;28;20057;-63
2021/05/07 18:56:12;;;;;;;;;;;;;;;;;;5076245;28;19912;-63
2021/05/07 18:58:37;;;;;;;;;;;;;;;;;;5076334;28;19923;-63
2021/05/07 19:01:02;;;;;;;;;;;;;;;;;;5076648;28;19908;-63
2021/05/07 19:03:28;;;;;;;;;;;;;;;;;;5075224;28;20421;-63
2021/05/07 19:05:53;;;;;;;;;;;;;;;;;;5076197;28;19920;-63
2021/05/07 19:08:18;;;;;;;;;;;;;;;;;;5075913;28;20358;-62
2021/05/07 19:10:44;;;;;;;;;;;;;;;;;;5076528;28;20245;-62
2021/05/07 19:13:09;;;;;;;;;;;;;;;;;;5075670;28;19952;-62
2021/05/07 19:15:36;;;;;;;;;;;;;;;;;;5076375;28;19916;-62
2021/05/07 19:18:02;;;;;;;;;;;;;;;;;;5076649;28;19928;-64
2021/05/07 19:20:27;;;;;;;;;;;;;;;;;;5076203;28;19912;-63
2021/05/07 19:22:52;;;;;;;;;;;;;;;;;;5076625;28;19917;-63
2021/05/07 19:25:18;;;;;;;;;;;;;;;;;;5076300;28;20270;-62
2021/05/07 19:27:43;;;;;;;;;;;;;;;;;;5076126;28;19917;-62
2021/05/07 19:30:09;;;;;;;;;;;;;;;;;;5074396;28;20038;-62
2021/05/07 19:32:34;;;;;;;;;;;;;;;;;;5076732;28;19970;-62
2021/05/07 19:34:59;;;;;;;;;;;;;;;;;;5078742;28;19966;-62
2021/05/07 19:37:25;;;;;;;;;;;;;;;;;;5080296;28;19912;-62
2021/05/07 19:39:50;;;;;;;;;;;;;;;;;;5079010;28;19916;-62
2021/05/07 19:42:16;;;;;;;;;;;;;;;;;;5078499;28;19924;-62
2021/05/07 19:44:41;;;;;;;;;;;;;;;;;;5077058;28;19920;-62
2021/05/07 19:47:10;;;;;;;;;;;;;;;;;;5075533;28;19912;-62
2021/05/07 19:49:36;;;;;;;;;;;;;;;;;;5075676;28;20388;-62
2021/05/07 19:52:01;;;;;;;;;;;;;;;;;;5076713;28;19923;-63
2021/05/07 19:54:27;;;;;;;;;;;;;;;;;;5077618;28;19935;-63
2021/05/07 19:56:52;;;;;;;;;;;;;;;;;;5077797;28;20007;-63
2021/05/07 19:59:17;;;;;;;;;;;;;;;;;;5079148;28;19919;-63
2021/05/07 20:01:44;;;;;;;;;;;;;;;;;;5078209;28;19913;-62
2021/05/07 20:04:09;;;;;;;;;;;;;;;;;;5076492;28;19923;-62
2021/05/07 20:06:35;;;;;;;;;;;;;;;;;;5085168;28;20003;-62
2021/05/07 20:09:00;;;;;;;;;;;;;;;;;;5087918;28;19919;-62
2021/05/07 20:11:26;;;;;;;;;;;;;;;;;;5084183;28;19991;-62
2021/05/07 20:13:51;;;;;;;;;;;;;;;;;;5086866;28;20001;-62
2021/05/07 20:16:17;;;;;;;;;;;;;;;;;;5081606;28;19979;-62
2021/05/07 20:18:42;;;;;;;;;;;;;;;;;;5084978;28;19912;-62
2021/05/07 20:21:08;;;;;;;;;;;;;;;;;;5084704;28;20346;-61
2021/05/07 20:23:33;;;;;;;;;;;;;;;;;;5074369;28;19924;-63
2021/05/07 20:25:58;;;;;;;;;;;;;;;;;;5078678;28;20008;-63
2021/05/07 20:28:24;;;;;;;;;;;;;;;;;;5073545;28;19921;-63
2021/05/07 20:30:49;;;;;;;;;;;;;;;;;;5078780;28;20258;-63
2021/05/07 20:33:19;;;;;;;;;;;;;;;;;;5079446;28;19916;-63
2021/05/07 20:35:45;;;;;;;;;;;;;;;;;;5081440;28;19977;-62
2021/05/07 20:38:10;;;;;;;;;;;;;;;;;;5080707;28;19916;-62
2021/05/07 20:40:35;;;;;;;;;;;;;;;;;;5075203;28;19983;-62
2021/05/07 20:43:01;;;;;;;;;;;;;;;;;;5072869;28;19913;-63
2021/05/07 20:45:30;;;;;;;;;;;;;;;;;;5075188;28;20258;-63
2021/05/07 20:47:55;;;;;;;;;;;;;;;;;;5078423;28;19937;-63
2021/05/07 20:50:21;;;;;;;;;;;;;;;;;;5072903;28;19927;-62
2021/05/07 20:52:46;;;;;;;;;;;;;;;;;;5079572;28;20867;-63
2021/05/07 20:55:11;;;;;;;;;;;;;;;;;;5077355;28;20022;-63
2021/05/07 20:57:37;;;;;;;;;;;;;;;;;;5083468;28;19912;-64
2021/05/07 21:00:02;;;;;;;;;;;;;;;;;;5082381;28;19923;-64
2021/05/07 21:02:27;;;;;;;;;;;;;;;;;;5077093;28;19920;-63
2021/05/07 21:04:53;;;;;;;;;;;;;;;;;;5079485;28;19977;-63
2021/05/07 21:07:18;;;;;;;;;;;;;;;;;;5079815;28;20261;-63
2021/05/07 21:09:44;;;;;;;;;;;;;;;;;;5077236;28;20254;-63
2021/05/07 21:12:09;;;;;;;;;;;;;;;;;;5076245;28;19965;-67
2021/05/07 21:14:34;;;;;;;;;;;;;;;;;;5078090;28;19995;-68
2021/05/07 21:17:00;;;;;;;;;;;;;;;;;;5078280;28;19924;-68
2021/05/07 21:19:26;;;;;;;;;;;;;;;;;;5081992;28;19951;-67
2021/05/07 21:21:51;;;;;;;;;;;;;;;;;;5062092;28;19917;-67
2021/05/07 21:24:19;;;;;;;;;;;;;;;;;;5079280;28;19923;-68
2021/05/07 21:26:45;;;;;;;;;;;;;;;;;;5077522;28;19924;-67
2021/05/07 21:29:10;;;;;;;;;;;;;;;;;;5074089;28;19932;-68
2021/05/07 21:31:35;;;;;;;;;;;;;;;;;;5079451;28;19916;-69
2021/05/07 21:34:01;;;;;;;;;;;;;;;;;;5077699;28;20514;-69
2021/05/07 21:36:26;;;;;;;;;;;;;;;;;;5083442;28;19913;-70
2021/05/07 21:38:52;;;;;;;;;;;;;;;;;;5067379;28;20620;-70
2021/05/07 21:41:17;;;;;;;;;;;;;;;;;;5089098;28;19962;-70
2021/05/07 21:43:42;;;;;;;;;;;;;;;;;;5081208;28;19986;-69
2021/05/07 21:46:08;;;;;;;;;;;;;;;;;;5065041;28;19923;-70
2021/05/07 21:48:33;;;;;;;;;;;;;;;;;;5079125;28;19921;-72
2021/05/07 21:50:59;;;;;;;;;;;;;;;;;;5079971;28;19919;-69
2021/05/07 21:53:25;;;;;;;;;;;;;;;;;;5082893;28;19916;-69
2021/05/07 21:55:50;;;;;;;;;;;;;;;;;;5065251;28;19966;-69
2021/05/07 21:58:15;;;;;;;;;;;;;;;;;;5065805;28;20406;-69
2021/05/07 22:00:41;;;;;;;;;;;;;;;;;;5081513;28;19916;-69
2021/05/07 22:03:09;;;;;;;;;;;;;;;;;;5086027;28;20040;-69
2021/05/07 22:05:35;;;;;;;;;;;;;;;;;;5081197;28;20311;-59
2021/05/07 22:08:00;;;;;;;;;;;;;;;;;;5090551;28;19912;-61
2021/05/07 22:10:26;;;;;;;;;;;;;;;;;;5087064;28;19927;-60
2021/05/07 22:12:51;;;;;;;;;;;;;;;;;;5092473;28;19912;-60
2021/05/07 22:15:16;;;;;;;;;;;;;;;;;;5088601;28;19958;-60
2021/05/07 22:17:42;;;;;;;;;;;;;;;;;;5095344;28;19912;-60
2021/05/07 22:20:07;;;;;;;;;;;;;;;;;;5093889;28;19922;-60
2021/05/07 22:22:32;;;;;;;;;;;;;;;;;;5088047;28;19938;-60
2021/05/07 22:24:58;;;;;;;;;;;;;;;;;;5088644;28;19928;-60
2021/05/07 22:27:24;;;;;;;;;;;;;;;;;;5087492;28;19912;-60
2021/05/07 22:29:49;;;;;;;;;;;;;;;;;;5085557;28;19963;-59
2021/05/07 22:32:14;;;;;;;;;;;;;;;;;;5087730;28;19916;-60
2021/05/07 22:34:40;;;;;;;;;;;;;;;;;;5092640;28;19908;-60
2021/05/07 22:37:05;;;;;;;;;;;;;;;;;;5083471;28;19938;-61
2021/05/07 22:39:30;;;;;;;;;;;;;;;;;;5093463;28;19919;-61
2021/05/07 22:41:56;;;;;;;;;;;;;;;;;;5085396;28;19927;-61
2021/05/07 22:44:21;;;;;;;;;;;;;;;;;;5088161;28;20379;-61
2021/05/07 22:46:47;;;;;;;;;;;;;;;;;;5087237;28;19931;-61
2021/05/07 22:49:12;;;;;;;;;;;;;;;;;;5091168;28;19916;-61
2021/05/07 22:51:37;;;;;;;;;;;;;;;;;;5089255;28;19931;-60
2021/05/07 22:54:03;;;;;;;;;;;;;;;;;;5084091;28;19921;-61
2021/05/07 22:56:28;;;;;;;;;;;;;;;;;;5085802;28;19985;-61
2021/05/07 22:58:53;;;;;;;;;;;;;;;;;;5084427;28;19967;-61
2021/05/07 23:01:19;;;;;;;;;;;;;;;;;;5068819;28;19915;-62
2021/05/07 23:03:44;;;;;;;;;;;;;;;;;;5083521;28;19916;-62
2021/05/07 23:06:10;;;;;;;;;;;;;;;;;;5087268;28;19932;-62
2021/05/07 23:08:35;;;;;;;;;;;;;;;;;;5084713;28;19912;-62
2021/05/07 23:11:00;;;;;;;;;;;;;;;;;;5068290;28;19981;-62
2021/05/07 23:13:26;;;;;;;;;;;;;;;;;;5087901;28;19912;-61
2021/05/07 23:15:51;;;;;;;;;;;;;;;;;;5083482;28;19920;-60
2021/05/07 23:18:17;;;;;;;;;;;;;;;;;;5086388;28;19968;-60
2021/05/07 23:20:42;;;;;;;;;;;;;;;;;;5087782;28;19967;-60
2021/05/07 23:23:07;;;;;;;;;;;;;;;;;;5072031;28;19916;-60
2021/05/07 23:25:33;;;;;;;;;;;;;;;;;;5086894;28;20354;-60
2021/05/07 23:27:58;;;;;;;;;;;;;;;;;;5085339;28;19912;-60
2021/05/07 23:30:24;;;;;;;;;;;;;;;;;;5085497;28;20380;-60
2021/05/07 23:32:49;;;;;;;;;;;;;;;;;;5070724;28;19912;-60
2021/05/07 23:35:14;;;;;;;;;;;;;;;;;;5086074;28;20349;-62
2021/05/07 23:37:40;;;;;;;;;;;;;;;;;;5086319;28;19912;-61
2021/05/07 23:40:05;;;;;;;;;;;;;;;;;;5081682;28;19924;-60
2021/05/07 23:42:30;;;;;;;;;;;;;;;;;;5086774;28;19913;-60
2021/05/07 23:44:56;;;;;;;;;;;;;;;;;;5070613;28;19943;-60
2021/05/07 23:47:22;;;;;;;;;;;;;;;;;;5089421;28;19913;-60
2021/05/07 23:49:47;;;;;;;;;;;;;;;;;;5090089;28;19912;-60
2021/05/07 23:52:12;;;;;;;;;;;;;;;;;;5075054;28;19912;-60
2021/05/07 23:54:38;;;;;;;;;;;;;;;;;;5092027;28;19938;-60
2021/05/07 23:57:03;;;;;;;;;;;;;;;;;;5086234;28;19920;-60
2021/05/07 23:59:29;;;;;;;;;;;;;;;;;;5087624;28;19920;-60
